Slateville, Pennsylvania
Current Conditions -  °F | °C
As of 5:54 PM on Tuesday 21 Oct 2014 (Local Time) from KRDG Reporting Station
Clear Clear  
Wind Chill: 61°   Ceiling: Unl
Heat Index: 61°   Visibility: 10mi
Dew Point: 48°   Wind: 6mph
Humidity: 62%   Direction: 330°NNW
Pressure: 29.83"   Gusts: NA
Location:  40.6329°N, 75.8768°W
Report Text: KRDG 212154Z AUTO 33005KT 10SM CLR 16/09 A2983 RMK AO2 SLP107 T01610089
Loading
Personal Weather Stations






























Interactive Weather Map
Tropical Storm Tracking
New forecast layout! Learn more

10-Day Weather Forecast

Advertisements
Track Severe Weather on mobile